Time;durP1;ratioP1;P1;durP2;ratioP2;P2;SDS_P1;SDS_P2;PMS_P1;PMS_P2;Temp;Humidity;BMP_temperature;BMP_pressure;BME280_temperature;BME280_humidity;BME280_pressure;Samples;Min_cycle;Max_cycle;Signal;HPM_P1;HPM_P2
2021/09/15 00:02:04;;;;;;;10.03;7.20;;;17.30;99.90;;;;;;5058288;28;20520;-52
2021/09/15 00:04:32;;;;;;;8.77;7.50;;;17.30;99.90;;;;;;5058487;28;20443;-54
2021/09/15 00:06:59;;;;;;;9.50;7.47;;;17.30;99.90;;;;;;5049509;28;20440;-49
2021/09/15 00:09:25;;;;;;;10.30;5.87;;;17.30;99.90;;;;;;5049876;28;20444;-50
2021/09/15 00:11:52;;;;;;;12.47;7.23;;;17.30;99.90;;;;;;5047916;28;20479;-52
2021/09/15 00:14:19;;;;;;;7.90;7.10;;;17.30;99.90;;;;;;5049306;28;20504;-49
2021/09/15 00:16:45;;;;;;;9.40;7.67;;;17.30;99.90;;;;;;5046213;28;20803;-51
2021/09/15 00:19:12;;;;;;;10.90;7.53;;;17.20;99.90;;;;;;5046272;28;20992;-52
2021/09/15 00:21:40;;;;;;;8.93;6.70;;;17.20;99.90;;;;;;5048949;28;20441;-52
2021/09/15 00:24:07;;;;;;;9.40;7.63;;;17.20;99.90;;;;;;5047052;28;20518;-50
2021/09/15 00:26:33;;;;;;;7.87;7.07;;;17.20;99.90;;;;;;5046371;28;20447;-46
2021/09/15 00:29:00;;;;;;;8.80;7.13;;;17.10;99.90;;;;;;5046865;28;20437;-45
2021/09/15 00:31:27;;;;;;;9.03;7.97;;;17.10;99.90;;;;;;5047733;28;20519;-48
2021/09/15 00:33:53;;;;;;;10.60;7.20;;;17.10;99.90;;;;;;5045962;28;20518;-47
2021/09/15 00:36:21;;;;;;;7.53;6.73;;;17.10;99.90;;;;;;5047117;28;20440;-49
2021/09/15 00:38:49;;;;;;;9.47;7.50;;;17.10;99.90;;;;;;5044956;28;20501;-49
2021/09/15 00:41:16;;;;;;;11.63;7.47;;;17.10;99.90;;;;;;5044648;28;20466;-50
2021/09/15 00:44:02;;;;;;;11.17;7.93;;;17.10;99.90;;;;;;5049256;28;20452;-49
2021/09/15 00:46:30;;;;;;;11.73;7.90;;;17.00;99.90;;;;;;5047801;28;20436;-49
2021/09/15 00:48:57;;;;;;;9.63;7.60;;;17.00;99.90;;;;;;5045785;28;20468;-51
2021/09/15 00:51:24;;;;;;;13.13;8.27;;;17.00;99.90;;;;;;5047400;28;20537;-49
2021/09/15 00:53:52;;;;;;;9.87;7.53;;;17.00;99.90;;;;;;5047320;28;20436;-52
2021/09/15 00:56:19;;;;;;;12.80;7.20;;;17.00;99.90;;;;;;5045784;28;20486;-52
2021/09/15 00:58:46;;;;;;;9.17;7.40;;;17.00;99.90;;;;;;5047748;28;20443;-50
2021/09/15 01:01:13;;;;;;;9.43;8.13;;;16.90;99.90;;;;;;5047994;28;20518;-51
2021/09/15 01:03:40;;;;;;;12.43;7.27;;;16.90;99.90;;;;;;5047568;28;20443;-51
2021/09/15 01:06:07;;;;;;;9.37;7.77;;;16.90;99.90;;;;;;5044929;28;21042;-52
2021/09/15 01:08:34;;;;;;;10.67;8.43;;;16.90;99.90;;;;;;5045573;28;20526;-46
2021/09/15 01:11:03;;;;;;;11.60;7.77;;;16.90;99.90;;;;;;5046433;28;20963;-51
2021/09/15 01:13:31;;;;;;;12.90;8.63;;;17.00;99.90;;;;;;5046877;28;20443;-50
2021/09/15 01:15:58;;;;;;;10.90;8.33;;;17.00;99.90;;;;;;5047887;28;20944;-51
2021/09/15 01:18:25;;;;;;;11.47;8.07;;;17.00;99.90;;;;;;5048487;28;20444;-52
2021/09/15 01:20:53;;;;;;;8.57;7.67;;;17.00;99.90;;;;;;5045597;28;20822;-51
2021/09/15 01:23:20;;;;;;;8.43;7.63;;;17.00;99.90;;;;;;5045287;28;20478;-53
2021/09/15 01:25:47;;;;;;;12.13;8.70;;;17.00;99.90;;;;;;5045512;28;20452;-54
2021/09/15 01:28:14;;;;;;;9.37;8.43;;;17.00;99.90;;;;;;5049395;28;20470;-54
2021/09/15 01:30:41;;;;;;;11.53;9.37;;;17.00;99.90;;;;;;5044285;28;20478;-51
2021/09/15 01:33:11;;;;;;;10.00;8.00;;;17.00;99.90;;;;;;5049372;28;20440;-46
2021/09/15 01:35:39;;;;;;;9.80;8.10;;;16.90;99.90;;;;;;5045549;28;20507;-51
2021/09/15 01:38:07;;;;;;;8.13;7.13;;;16.90;99.90;;;;;;5046752;28;20513;-54
2021/09/15 01:40:34;;;;;;;11.07;8.60;;;16.90;99.90;;;;;;5047390;28;21129;-54
2021/09/15 01:43:01;;;;;;;12.37;9.10;;;17.00;99.90;;;;;;5047964;28;20520;-48
2021/09/15 01:45:28;;;;;;;12.43;8.73;;;17.00;99.90;;;;;;5046396;28;20447;-53
2021/09/15 01:47:55;;;;;;;11.13;8.43;;;16.90;99.90;;;;;;5044424;28;20481;-46
2021/09/15 01:50:21;;;;;;;8.90;8.00;;;16.90;99.90;;;;;;5042166;28;20530;-48
2021/09/15 01:52:48;;;;;;;12.60;8.20;;;16.90;99.90;;;;;;5045002;28;20444;-48
2021/09/15 01:55:24;;;;;;;11.27;9.33;;;16.80;99.90;;;;;;5044416;28;20955;-47
2021/09/15 01:57:51;;;;;;;12.90;9.47;;;16.80;99.90;;;;;;5049049;28;20750;-53
2021/09/15 02:00:19;;;;;;;11.53;8.63;;;16.80;99.90;;;;;;5045030;28;20444;-48
2021/09/15 02:02:48;;;;;;;11.23;8.70;;;16.70;99.90;;;;;;5046212;28;20888;-50
2021/09/15 02:05:14;;;;;;;10.60;9.50;;;16.70;99.90;;;;;;5046768;28;20482;-49
2021/09/15 02:07:42;;;;;;;12.30;9.37;;;16.60;99.90;;;;;;5044968;28;20443;-52
2021/09/15 02:10:10;;;;;;;10.30;9.30;;;16.60;99.90;;;;;;5048970;28;20470;-53
2021/09/15 02:12:39;;;;;;;11.57;8.30;;;16.60;99.90;;;;;;5046521;28;20544;-54
2021/09/15 02:15:08;;;;;;;12.20;8.97;;;16.50;99.90;;;;;;5051463;28;20448;-50
2021/09/15 02:17:35;;;;;;;11.23;8.87;;;16.60;99.90;;;;;;5052380;28;20493;-50
2021/09/15 02:20:01;;;;;;;10.63;9.53;;;16.60;99.90;;;;;;5049645;28;20490;-45
2021/09/15 02:22:28;;;;;;;10.53;9.07;;;16.60;99.90;;;;;;5049409;28;20440;-48
2021/09/15 02:24:55;;;;;;;11.27;9.00;;;16.60;99.90;;;;;;5048572;28;20436;-49
2021/09/15 02:27:21;;;;;;;10.43;9.43;;;16.60;99.90;;;;;;5054098;28;20473;-48
2021/09/15 02:29:49;;;;;;;12.27;10.10;;;16.70;99.90;;;;;;5048015;28;20443;-51
2021/09/15 02:32:16;;;;;;;12.03;9.37;;;16.70;99.90;;;;;;5049161;28;20509;-50
2021/09/15 02:34:44;;;;;;;11.70;9.70;;;16.60;99.90;;;;;;5044205;28;20484;-52
2021/09/15 02:37:11;;;;;;;16.00;9.73;;;16.60;99.90;;;;;;5044296;28;20451;-53
2021/09/15 02:39:38;;;;;;;11.23;9.47;;;16.60;99.90;;;;;;5047436;28;20440;-52
2021/09/15 02:42:04;;;;;;;13.20;8.50;;;16.60;99.90;;;;;;5048607;28;20524;-50
2021/09/15 02:44:31;;;;;;;10.40;9.30;;;16.60;99.90;;;;;;5047581;28;20480;-51
2021/09/15 02:46:59;;;;;;;11.80;9.77;;;16.60;99.90;;;;;;5048517;28;20943;-48
2021/09/15 02:49:27;;;;;;;11.20;9.33;;;16.60;99.90;;;;;;5043830;28;20817;-48
2021/09/15 02:59:40;;;;;;;12.30;9.37;;;16.60;99.90;;;;;;5033262;22;20492;-52
2021/09/15 03:02:08;;;;;;;10.80;8.70;;;16.60;99.90;;;;;;5032702;28;20501;-49
2021/09/15 03:04:34;;;;;;;10.77;9.67;;;16.60;99.90;;;;;;5036955;28;20509;-49
2021/09/15 03:07:01;;;;;;;15.83;10.73;;;16.70;99.90;;;;;;5036766;28;20832;-47
2021/09/15 03:09:28;;;;;;;11.83;10.13;;;16.70;99.90;;;;;;5043156;28;20448;-49
2021/09/15 03:11:54;;;;;;;10.23;9.17;;;16.70;99.90;;;;;;5042755;28;20533;-51
2021/09/15 03:14:21;;;;;;;10.27;9.20;;;16.70;99.90;;;;;;5042569;28;20502;-48
2021/09/15 03:16:47;;;;;;;12.03;9.70;;;16.70;99.90;;;;;;5043711;28;20448;-48
2021/09/15 03:19:15;;;;;;;10.13;9.00;;;16.70;99.90;;;;;;5042925;28;20444;-49
2021/09/15 03:21:44;;;;;;;13.27;10.33;;;16.70;99.90;;;;;;5039630;28;20440;-52
2021/09/15 03:24:10;;;;;;;11.40;10.20;;;16.70;99.90;;;;;;5042535;28;20437;-51
2021/09/15 03:26:37;;;;;;;12.70;10.27;;;16.70;99.90;;;;;;5040031;28;20447;-50
2021/09/15 03:29:04;;;;;;;10.90;9.77;;;16.70;99.90;;;;;;5038870;28;20835;-53
2021/09/15 03:31:31;;;;;;;17.10;10.10;;;16.70;99.90;;;;;;5037903;28;20534;-50
2021/09/15 03:33:57;;;;;;;10.37;9.33;;;16.70;99.90;;;;;;5039100;28;20432;-51
2021/09/15 03:36:25;;;;;;;16.00;9.87;;;16.80;99.90;;;;;;5039074;28;20436;-53
2021/09/15 03:38:52;;;;;;;12.47;10.60;;;16.80;99.90;;;;;;5038559;28;20530;-51
2021/09/15 03:41:19;;;;;;;13.80;10.47;;;16.80;99.90;;;;;;5038652;28;20436;-49
2021/09/15 03:43:45;;;;;;;11.47;10.37;;;16.80;99.90;;;;;;5038565;28;20436;-49
2021/09/15 03:46:12;;;;;;;13.13;10.70;;;16.80;99.90;;;;;;5038576;28;20506;-53
2021/09/15 03:48:38;;;;;;;15.77;10.47;;;16.80;99.90;;;;;;5038310;28;20855;-52
2021/09/15 03:51:05;;;;;;;12.43;10.50;;;16.80;99.90;;;;;;5038246;28;20452;-53
2021/09/15 03:53:33;;;;;;;13.73;11.00;;;16.90;99.90;;;;;;5038356;28;20766;-51
2021/09/15 03:56:00;;;;;;;13.37;11.17;;;16.80;99.90;;;;;;5038266;28;20452;-51
2021/09/15 03:58:27;;;;;;;14.07;11.87;;;16.80;99.90;;;;;;5038603;28;20521;-51
2021/09/15 04:00:53;;;;;;;13.03;11.17;;;16.70;99.90;;;;;;5038165;28;20449;-46
2021/09/15 04:03:20;;;;;;;14.13;11.07;;;16.70;99.90;;;;;;5038185;28;20522;-52
2021/09/15 04:05:46;;;;;;;12.03;10.80;;;16.70;99.90;;;;;;5038161;28;20463;-54
2021/09/15 04:08:13;;;;;;;13.93;11.43;;;16.70;99.90;;;;;;5038728;28;20440;-49
2021/09/15 04:10:42;;;;;;;13.90;11.57;;;16.70;99.90;;;;;;5037854;28;20502;-51
2021/09/15 04:13:09;;;;;;;15.67;10.90;;;16.70;99.90;;;;;;5037660;28;20849;-51
2021/09/15 04:15:35;;;;;;;12.50;10.10;;;16.70;99.90;;;;;;5038619;28;20506;-53
2021/09/15 04:18:02;;;;;;;12.67;10.63;;;16.60;99.90;;;;;;5035607;28;20456;-54
2021/09/15 04:20:28;;;;;;;13.97;11.43;;;16.60;99.90;;;;;;5038291;28;20494;-50
2021/09/15 04:22:55;;;;;;;14.43;10.53;;;16.60;99.90;;;;;;5038195;28;20433;-53
2021/09/15 04:31:17;;;;;;;11.97;10.73;;;16.60;99.90;;;;;;5039257;28;20427;-51
2021/09/15 04:33:44;;;;;;;12.70;11.37;;;16.50;99.90;;;;;;5039239;28;20424;-48
2021/09/15 04:36:11;;;;;;;15.37;11.67;;;16.60;99.90;;;;;;5039130;28;20514;-47
2021/09/15 04:38:37;;;;;;;11.97;10.77;;;16.60;99.90;;;;;;5040088;28;20444;-47
2021/09/15 04:41:04;;;;;;;16.77;11.90;;;16.70;99.90;;;;;;5038663;28;20451;-53
2021/09/15 04:43:32;;;;;;;13.30;11.53;;;16.70;99.90;;;;;;5037660;28;20502;-48
2021/09/15 04:45:59;;;;;;;14.60;11.63;;;16.80;99.90;;;;;;5038118;28;20519;-52
2021/09/15 04:48:26;;;;;;;17.20;12.53;;;16.80;99.90;;;;;;5039513;28;20502;-51
2021/09/15 04:50:52;;;;;;;14.90;12.67;;;16.80;99.90;;;;;;5037642;28;20451;-53
2021/09/15 04:53:20;;;;;;;13.50;12.07;;;16.80;99.90;;;;;;5049604;28;20480;-50
2021/09/15 04:55:46;;;;;;;13.00;11.57;;;16.80;99.90;;;;;;5036313;28;20456;-45
2021/09/15 04:58:13;;;;;;;13.30;11.90;;;16.90;99.90;;;;;;5035822;28;20479;-47
2021/09/15 05:00:41;;;;;;;15.30;12.60;;;16.90;99.90;;;;;;5039972;28;20448;-45
2021/09/15 05:03:08;;;;;;;13.60;12.20;;;16.90;99.90;;;;;;5035546;28;20460;-50
2021/09/15 05:05:34;;;;;;;16.77;12.57;;;16.90;99.90;;;;;;5035308;28;20502;-48
2021/09/15 05:08:01;;;;;;;15.90;13.33;;;17.00;99.90;;;;;;5036003;28;20479;-50
2021/09/15 05:10:28;;;;;;;13.63;11.60;;;17.00;99.90;;;;;;5036004;28;20452;-52
2021/09/15 05:12:55;;;;;;;21.07;13.50;;;17.00;99.90;;;;;;5036659;28;20549;-48
2021/09/15 05:15:25;;;;;;;18.07;13.07;;;17.00;99.90;;;;;;5051618;28;20507;-52
2021/09/15 05:17:55;;;;;;;14.27;12.77;;;17.00;99.90;;;;;;5054968;28;20433;-50
2021/09/15 05:20:22;;;;;;;22.33;13.80;;;17.10;99.90;;;;;;5055032;28;20447;-51
2021/09/15 05:22:50;;;;;;;18.87;13.57;;;17.10;99.90;;;;;;5054895;28;20502;-54
2021/09/15 05:25:20;;;;;;;15.03;12.67;;;17.10;99.90;;;;;;5054248;28;20448;-55
2021/09/15 05:27:47;;;;;;;17.33;13.10;;;17.10;99.90;;;;;;5053185;28;20452;-53
2021/09/15 05:30:15;;;;;;;13.83;12.23;;;17.20;99.90;;;;;;5052308;28;20944;-52
2021/09/15 05:32:42;;;;;;;17.10;12.20;;;17.20;99.90;;;;;;5052949;28;20476;-49
2021/09/15 05:35:12;;;;;;;20.23;13.40;;;17.20;99.90;;;;;;5052822;28;20444;-50
2021/09/15 05:37:39;;;;;;;22.03;13.47;;;17.20;99.90;;;;;;5052711;28;20448;-50
2021/09/15 05:40:07;;;;;;;21.10;13.87;;;17.30;99.90;;;;;;5053217;28;20444;-55
2021/09/15 05:42:34;;;;;;;17.90;12.83;;;17.30;99.90;;;;;;5053572;28;20475;-53
2021/09/15 05:45:02;;;;;;;14.60;13.10;;;17.40;99.90;;;;;;5054108;28;20440;-53
2021/09/15 05:47:29;;;;;;;16.90;12.83;;;17.40;99.90;;;;;;5053765;28;20445;-51
2021/09/15 05:49:56;;;;;;;18.27;13.43;;;17.40;99.90;;;;;;5054562;28;20488;-52
2021/09/15 05:52:24;;;;;;;16.30;13.00;;;17.40;99.90;;;;;;5053668;28;20476;-52
2021/09/15 05:54:50;;;;;;;13.93;11.73;;;17.50;99.90;;;;;;5054120;28;20447;-50
2021/09/15 05:57:17;;;;;;;14.57;12.93;;;17.50;99.90;;;;;;5053725;28;20452;-51
2021/09/15 05:59:44;;;;;;;24.90;13.40;;;17.50;99.90;;;;;;5054156;28;20471;-53
2021/09/15 06:02:20;;;;;;;16.67;12.17;;;17.60;99.90;;;;;;5054148;28;20444;-49
2021/09/15 06:04:46;;;;;;;28.50;14.30;;;17.60;99.90;;;;;;5053658;28;20667;-51
2021/09/15 06:07:13;;;;;;;19.13;13.33;;;17.70;99.90;;;;;;5054141;28;20432;-49
2021/09/15 06:09:41;;;;;;;15.10;12.20;;;17.70;99.90;;;;;;5053889;28;20436;-55
2021/09/15 06:12:08;;;;;;;15.70;13.20;;;17.70;99.90;;;;;;5053665;28;20530;-51
2021/09/15 06:14:35;;;;;;;13.90;12.50;;;17.70;99.90;;;;;;5053692;28;20448;-54
2021/09/15 06:17:12;;;;;;;16.37;13.17;;;17.80;99.90;;;;;;5053935;28;20444;-54
2021/09/15 06:19:39;;;;;;;14.47;11.57;;;17.80;99.90;;;;;;5053944;28;20436;-55
2021/09/15 06:22:05;;;;;;;17.13;13.40;;;17.90;99.90;;;;;;5053803;28;20423;-49
2021/09/15 06:24:32;;;;;;;17.17;14.23;;;17.90;99.90;;;;;;5053453;28;20451;-50
2021/09/15 06:27:00;;;;;;;16.57;12.50;;;18.00;99.90;;;;;;5053679;28;20463;-56
2021/09/15 06:29:26;;;;;;;14.80;13.20;;;18.10;99.90;;;;;;5053235;28;20497;-55
2021/09/15 06:31:53;;;;;;;18.07;13.77;;;18.10;99.90;;;;;;5053160;28;20436;-52
2021/09/15 06:34:20;;;;;;;16.80;13.10;;;18.20;99.90;;;;;;5053118;28;20444;-53
2021/09/15 06:36:46;;;;;;;13.17;10.87;;;18.30;99.90;;;;;;5054027;28;20436;-52
2021/09/15 06:39:13;;;;;;;15.77;12.50;;;18.50;99.90;;;;;;5053340;28;20448;-49
2021/09/15 06:41:40;;;;;;;15.17;12.70;;;18.60;99.90;;;;;;5054058;28;20474;-53
2021/09/15 06:44:09;;;;;;;14.80;12.50;;;18.70;99.90;;;;;;5053366;28;20436;-54
2021/09/15 06:46:36;;;;;;;14.03;11.27;;;18.70;99.90;;;;;;5035357;28;20467;-54
2021/09/15 06:49:03;;;;;;;15.50;11.93;;;18.80;99.90;;;;;;5035564;28;20437;-53
2021/09/15 06:51:29;;;;;;;13.63;11.90;;;18.80;99.90;;;;;;5035847;28;20448;-55
2021/09/15 06:53:56;;;;;;;18.73;12.07;;;18.90;99.90;;;;;;5036418;28;20488;-55
2021/09/15 06:56:24;;;;;;;19.17;12.73;;;19.00;99.90;;;;;;5035960;28;20448;-55
2021/09/15 06:58:51;;;;;;;20.17;12.00;;;19.00;99.90;;;;;;5019745;28;20476;-55
2021/09/15 07:01:20;;;;;;;19.30;13.57;;;19.00;99.90;;;;;;5030634;28;20774;-55
2021/09/15 07:03:46;;;;;;;16.23;11.83;;;19.00;99.90;;;;;;5037534;28;20460;-52
2021/09/15 07:06:13;;;;;;;16.27;13.10;;;19.00;99.90;;;;;;5037714;28;20769;-51
2021/09/15 07:08:40;;;;;;;14.07;11.97;;;19.00;99.90;;;;;;5038374;28;20916;-53
2021/09/15 07:11:06;;;;;;;13.00;11.70;;;19.00;99.90;;;;;;5039391;28;20444;-53
2021/09/15 07:13:33;;;;;;;18.97;12.37;;;19.10;99.90;;;;;;5055329;28;20482;-53
2021/09/15 07:16:01;;;;;;;17.27;11.90;;;19.10;99.90;;;;;;5055306;28;20436;-51
2021/09/15 07:18:29;;;;;;;14.43;11.63;;;19.20;99.90;;;;;;5039307;28;20555;-52
2021/09/15 07:20:56;;;;;;;18.20;12.33;;;19.30;99.90;;;;;;5039772;28;20542;-54
2021/09/15 07:23:24;;;;;;;13.57;11.50;;;19.40;99.90;;;;;;5038990;28;20501;-51
2021/09/15 07:25:51;;;;;;;20.47;11.73;;;19.40;99.90;;;;;;5037185;28;20460;-55
2021/09/15 07:28:18;;;;;;;15.40;12.13;;;19.50;99.90;;;;;;5037267;28;20936;-51
2021/09/15 07:30:45;;;;;;;18.50;12.10;;;19.50;99.90;;;;;;5037254;28;20829;-52
2021/09/15 07:33:12;;;;;;;13.10;11.20;;;19.60;99.90;;;;;;5037316;28;20484;-52
2021/09/15 07:35:40;;;;;;;12.43;11.00;;;19.70;99.90;;;;;;5047424;28;20517;-51
2021/09/15 07:38:07;;;;;;;14.50;10.87;;;19.80;99.90;;;;;;5056782;28;20905;-50
2021/09/15 07:40:33;;;;;;;16.93;11.17;;;19.80;99.90;;;;;;5057222;28;20478;-48
2021/09/15 07:43:01;;;;;;;14.03;11.67;;;19.80;99.90;;;;;;5058039;28;20451;-52
2021/09/15 07:45:28;;;;;;;16.00;12.10;;;19.90;99.90;;;;;;5050966;28;20857;-51
2021/09/15 07:47:54;;;;;;;18.03;11.90;;;20.00;99.90;;;;;;5035450;28;20502;-53
2021/09/15 07:50:21;;;;;;;17.07;11.27;;;20.20;99.90;;;;;;5036586;28;20510;-50
2021/09/15 07:52:49;;;;;;;15.00;11.83;;;20.30;99.90;;;;;;5035586;28;20554;-52
2021/09/15 07:55:16;;;;;;;35.53;21.97;;;20.50;99.90;;;;;;5036228;28;20827;-54
2021/09/15 07:57:43;;;;;;;15.63;14.00;;;20.60;99.90;;;;;;5035785;28;20549;-52
2021/09/15 08:00:11;;;;;;;15.27;11.13;;;20.70;99.90;;;;;;5036053;28;20758;-53
2021/09/15 08:02:38;;;;;;;14.80;11.60;;;20.90;99.90;;;;;;5040812;28;20506;-53
2021/09/15 08:05:05;;;;;;;12.13;10.57;;;21.10;99.90;;;;;;5036222;28;20444;-52
2021/09/15 08:07:32;;;;;;;14.00;10.93;;;21.30;99.90;;;;;;5036501;28;20786;-49
2021/09/15 08:10:00;;;;;;;12.20;10.63;;;21.50;99.90;;;;;;5036594;28;20522;-50
2021/09/15 08:12:27;;;;;;;11.50;10.30;;;21.70;99.90;;;;;;5036530;28;20448;-50
2021/09/15 08:14:53;;;;;;;11.60;9.33;;;22.10;99.90;;;;;;5035883;28;20440;-52
2021/09/15 08:17:20;;;;;;;10.40;9.40;;;23.00;99.90;;;;;;5035924;28;20444;-50
2021/09/15 08:19:47;;;;;;;10.00;8.80;;;24.30;99.90;;;;;;5035961;28;20451;-48
2021/09/15 08:22:14;;;;;;;9.27;8.37;;;25.60;99.90;;;;;;5019531;28;20440;-52
2021/09/15 08:24:41;;;;;;;10.80;9.40;;;26.70;99.90;;;;;;5036300;28;20531;-50
2021/09/15 08:27:09;;;;;;;11.83;10.73;;;27.60;99.90;;;;;;5036096;28;20514;-51
2021/09/15 08:29:37;;;;;;;12.00;10.83;;;28.30;99.90;;;;;;5035811;28;20440;-49
2021/09/15 08:32:04;;;;;;;12.20;9.90;;;29.10;99.90;;;;;;5036059;28;20472;-50
2021/09/15 08:34:30;;;;;;;10.20;8.87;;;30.20;98.60;;;;;;5035714;28;20487;-46
2021/09/15 08:36:57;;;;;;;11.40;8.60;;;31.20;94.10;;;;;;5035807;28;20793;-48
2021/09/15 08:39:24;;;;;;;9.23;8.17;;;31.70;89.70;;;;;;5035518;28;20495;-51
2021/09/15 08:41:51;;;;;;;8.63;8.03;;;31.80;84.40;;;;;;5035422;28;20826;-49
2021/09/15 08:44:19;;;;;;;10.40;9.40;;;31.80;82.70;;;;;;5035887;28;20528;-53
2021/09/15 08:46:47;;;;;;;11.73;10.63;;;31.80;81.00;;;;;;5035248;28;20795;-47
2021/09/15 08:49:15;;;;;;;10.27;9.27;;;31.80;79.80;;;;;;5035431;28;20449;-51
2021/09/15 08:51:42;;;;;;;10.87;8.73;;;31.50;79.50;;;;;;5035110;28;20452;-48
2021/09/15 08:54:10;;;;;;;9.23;8.40;;;31.40;79.50;;;;;;5035261;28;20464;-49
2021/09/15 08:56:37;;;;;;;12.13;10.73;;;31.40;78.90;;;;;;5035030;28;20781;-51
2021/09/15 08:59:04;;;;;;;8.90;8.10;;;31.30;79.50;;;;;;5034943;28;20613;-51
2021/09/15 09:01:32;;;;;;;8.87;8.07;;;31.30;79.90;;;;;;5034952;28;20455;-51
2021/09/15 09:03:59;;;;;;;11.10;9.33;;;31.50;78.10;;;;;;5034944;28;20518;-51
2021/09/15 09:06:31;;;;;;;9.03;8.13;;;31.60;78.70;;;;;;5034268;28;20502;-51
2021/09/15 09:08:57;;;;;;;9.03;8.20;;;31.40;77.00;;;;;;5034736;28;20468;-54
2021/09/15 09:11:26;;;;;;;10.50;8.50;;;30.90;78.90;;;;;;5034585;28;20884;-53
2021/09/15 09:13:54;;;;;;;8.93;8.07;;;30.70;79.00;;;;;;5034946;28;20847;-50
2021/09/15 09:16:23;;;;;;;8.50;7.63;;;30.70;79.40;;;;;;5034946;28;20441;-51
2021/09/15 09:18:58;;;;;;;10.70;9.70;;;30.70;78.90;;;;;;5034668;28;20999;-51
2021/09/15 09:21:26;;;;;;;9.47;8.57;;;30.40;79.40;;;;;;5036652;28;20444;-52
2021/09/15 09:23:57;;;;;;;9.60;7.90;;;30.00;82.10;;;;;;5035680;28;20531;-52
2021/09/15 09:26:24;;;;;;;9.63;8.73;;;29.50;84.50;;;;;;5035771;28;20456;-51
2021/09/15 09:28:51;;;;;;;12.30;7.80;;;28.90;84.20;;;;;;5035681;28;20951;-51
2021/09/15 09:31:18;;;;;;;12.87;9.30;;;28.40;86.50;;;;;;5034769;28;20456;-52
2021/09/15 09:33:46;;;;;;;9.57;8.63;;;28.10;88.90;;;;;;5034506;28;20484;-52
2021/09/15 09:36:14;;;;;;;9.80;8.90;;;27.50;90.30;;;;;;5018173;28;20538;-50
2021/09/15 09:38:42;;;;;;;11.60;8.60;;;27.10;91.30;;;;;;5034423;28;20521;-49
2021/09/15 09:41:12;;;;;;;9.97;8.97;;;26.70;92.20;;;;;;5034353;28;20672;-48
2021/09/15 09:43:41;;;;;;;11.90;9.43;;;26.50;93.40;;;;;;5034162;28;20869;-51
2021/09/15 09:46:10;;;;;;;11.40;10.17;;;26.30;94.20;;;;;;5034410;28;20487;-46
2021/09/15 09:48:42;;;;;;;8.90;8.00;;;26.20;95.50;;;;;;5034168;28;20484;-48
2021/09/15 09:51:25;;;;;;;10.60;8.77;;;26.20;96.00;;;;;;5034344;28;20502;-52
2021/09/15 09:54:10;;;;;;;14.80;9.43;;;26.20;96.90;;;;;;5034369;28;20480;-52
2021/09/15 09:56:39;;;;;;;9.37;7.70;;;26.20;97.60;;;;;;5034229;28;20782;-50
2021/09/15 09:59:08;;;;;;;9.60;8.17;;;26.00;98.20;;;;;;5033879;28;20553;-46
2021/09/15 10:01:40;;;;;;;14.60;8.53;;;26.00;98.70;;;;;;5033493;28;20444;-50
2021/09/15 10:04:07;;;;;;;9.50;8.23;;;26.20;98.90;;;;;;5034037;28;20448;-51
2021/09/15 10:06:36;;;;;;;12.57;7.93;;;26.50;98.60;;;;;;5033989;28;20444;-50
2021/09/15 10:09:04;;;;;;;8.47;7.63;;;27.00;97.70;;;;;;5034103;28;20507;-51
2021/09/15 10:11:31;;;;;;;11.07;7.30;;;27.30;96.80;;;;;;5032903;28;20518;-50
2021/09/15 10:13:59;;;;;;;8.33;7.53;;;27.70;96.10;;;;;;5033644;28;20925;-47
2021/09/15 10:16:28;;;;;;;12.43;7.70;;;28.10;95.00;;;;;;5033852;28;20478;-51
2021/09/15 10:19:00;;;;;;;11.70;7.70;;;28.30;94.00;;;;;;5033893;28;20444;-51
2021/09/15 10:21:29;;;;;;;14.67;7.33;;;28.40;93.70;;;;;;5033705;28;20449;-51
2021/09/15 10:23:57;;;;;;;7.80;7.10;;;28.50;93.50;;;;;;5033531;28;20813;-49
2021/09/15 10:26:36;;;;;;;7.53;6.77;;;28.60;93.00;;;;;;5033405;28;20450;-52
2021/09/15 10:29:41;;;;;;;10.30;7.30;;;29.00;92.80;;;;;;5033965;28;20522;-50
2021/09/15 10:32:09;;;;;;;14.37;7.73;;;29.40;92.20;;;;;;5034033;28;20432;-51
2021/09/15 10:34:49;;;;;;;10.53;7.57;;;29.80;91.00;;;;;;5033884;28;20512;-48
2021/09/15 10:37:52;;;;;;;10.33;8.70;;;29.30;90.60;;;;;;5014850;28;20442;-51
2021/09/15 10:40:36;;;;;;;12.13;8.53;;;28.70;91.40;;;;;;5012434;28;20452;-50
2021/09/15 10:43:05;;;;;;;11.63;7.90;;;28.30;92.30;;;;;;5014296;28;20905;-46
2021/09/15 10:45:33;;;;;;;8.23;6.87;;;27.80;92.90;;;;;;5014479;28;20453;-47
2021/09/15 10:48:12;;;;;;;13.33;8.03;;;27.40;94.10;;;;;;5014196;28;20445;-50
2021/09/15 10:50:53;;;;;;;8.90;7.60;;;27.10;94.80;;;;;;5014300;28;20421;-50
2021/09/15 10:53:22;;;;;;;11.03;9.90;;;26.80;95.20;;;;;;5017019;28;20759;-46
2021/09/15 10:55:53;;;;;;;7.87;7.07;;;26.40;96.00;;;;;;5033734;28;20948;-52
2021/09/15 10:58:23;;;;;;;8.43;7.63;;;26.00;96.90;;;;;;5032996;28;20534;-49
2021/09/15 11:00:51;;;;;;;12.23;7.47;;;25.80;98.10;;;;;;5032996;28;20448;-50
2021/09/15 11:03:31;;;;;;;9.60;7.10;;;25.60;99.20;;;;;;5033383;28;20466;-47
2021/09/15 11:06:18;;;;;;;9.33;8.13;;;25.40;99.90;;;;;;5033471;28;20483;-49
2021/09/15 11:08:47;;;;;;;8.43;7.23;;;25.30;99.90;;;;;;5033505;28;20993;-52
2021/09/15 11:11:50;;;;;;;9.97;7.43;;;25.40;99.90;;;;;;5033033;28;20467;-51
2021/09/15 11:14:18;;;;;;;8.30;7.50;;;25.30;99.90;;;;;;5033563;28;20475;-50
2021/09/15 11:16:45;;;;;;;11.13;8.10;;;25.50;99.90;;;;;;5033303;28;20992;-52
2021/09/15 11:19:14;;;;;;;9.20;8.10;;;25.60;99.90;;;;;;5032700;28;20466;-51
2021/09/15 11:21:44;;;;;;;9.37;7.77;;;25.70;99.90;;;;;;5033092;28;20448;-49
2021/09/15 11:24:16;;;;;;;10.47;8.37;;;25.70;99.90;;;;;;5032971;28;20441;-47
2021/09/15 11:26:47;;;;;;;9.00;8.27;;;25.70;99.90;;;;;;5033098;28;20482;-48
2021/09/15 11:29:16;;;;;;;8.17;7.33;;;25.70;99.90;;;;;;5035566;28;20439;-49
2021/09/15 11:31:43;;;;;;;9.00;8.10;;;25.70;99.90;;;;;;5036627;28;20788;-50
2021/09/15 11:34:11;;;;;;;7.63;6.93;;;25.70;99.90;;;;;;5036589;28;20487;-50
2021/09/15 11:36:40;;;;;;;8.77;7.87;;;25.70;99.90;;;;;;5036836;28;20456;-51
2021/09/15 11:39:08;;;;;;;10.30;9.40;;;25.80;99.90;;;;;;5036417;28;20441;-46
2021/09/15 11:41:35;;;;;;;8.57;7.67;;;25.80;99.90;;;;;;5036800;28;20444;-51
2021/09/15 11:44:03;;;;;;;9.83;8.80;;;25.80;99.90;;;;;;5036465;28;20901;-51
2021/09/15 11:46:36;;;;;;;14.40;11.13;;;25.80;99.90;;;;;;5036419;28;20462;-51
2021/09/15 11:49:03;;;;;;;17.83;11.13;;;25.70;99.90;;;;;;5036584;28;20509;-51
2021/09/15 11:51:32;;;;;;;9.70;8.70;;;25.60;99.90;;;;;;5036024;28;20486;-48
2021/09/15 11:54:02;;;;;;;11.97;8.70;;;25.60;99.90;;;;;;5036143;28;20495;-49
2021/09/15 11:56:32;;;;;;;11.90;10.70;;;25.60;99.90;;;;;;5036560;28;20444;-49
2021/09/15 11:59:00;;;;;;;8.70;7.83;;;25.50;99.90;;;;;;5036088;28;20480;-48
2021/09/15 12:01:30;;;;;;;9.47;8.30;;;25.50;99.90;;;;;;5036403;28;20514;-47
2021/09/15 12:03:58;;;;;;;11.03;7.83;;;25.40;99.90;;;;;;5036128;28;20459;-49
2021/09/15 12:06:25;;;;;;;8.17;7.57;;;25.30;99.90;;;;;;5036240;28;20741;-51
2021/09/15 12:08:52;;;;;;;10.47;9.47;;;25.20;99.90;;;;;;5035695;28;20494;-50
2021/09/15 12:11:20;;;;;;;16.93;15.13;;;25.10;99.90;;;;;;5035779;28;20460;-48
2021/09/15 12:13:52;;;;;;;21.13;15.90;;;25.20;99.90;;;;;;5036338;28;20533;-49
2021/09/15 12:16:28;;;;;;;11.00;9.47;;;25.10;99.90;;;;;;5036099;28;20444;-51
2021/09/15 12:18:55;;;;;;;12.23;10.10;;;25.10;99.90;;;;;;5036143;28;20459;-49
2021/09/15 12:21:24;;;;;;;8.77;7.87;;;25.10;99.90;;;;;;5036251;28;20484;-49
2021/09/15 12:23:52;;;;;;;9.07;8.17;;;24.90;99.90;;;;;;5036039;28;20834;-50
2021/09/15 12:26:25;;;;;;;8.07;7.37;;;24.90;99.90;;;;;;5036481;28;20514;-51
2021/09/15 12:29:00;;;;;;;9.50;8.10;;;25.00;99.90;;;;;;5036116;28;20476;-46
2021/09/15 12:31:42;;;;;;;12.37;11.17;;;25.00;99.90;;;;;;5035901;28;20440;-50
2021/09/15 12:34:09;;;;;;;11.80;10.43;;;24.90;99.90;;;;;;5035644;28;20487;-49
2021/09/15 12:36:36;;;;;;;8.63;7.83;;;24.90;99.90;;;;;;5035666;28;20455;-52
2021/09/15 12:39:10;;;;;;;8.93;8.13;;;24.90;99.90;;;;;;5035635;28;20455;-50
2021/09/15 12:41:50;;;;;;;8.33;7.53;;;24.90;99.90;;;;;;5035485;28;20788;-49
2021/09/15 12:44:16;;;;;;;10.40;7.63;;;24.80;99.90;;;;;;5035835;28;20771;-50
2021/09/15 12:46:49;;;;;;;8.37;7.10;;;24.70;99.90;;;;;;5035670;28;20452;-49
2021/09/15 12:49:28;;;;;;;7.70;7.00;;;24.70;99.90;;;;;;5035323;28;20503;-47
2021/09/15 12:52:09;;;;;;;9.90;6.23;;;24.60;99.90;;;;;;5035670;28;20518;-46
2021/09/15 12:54:37;;;;;;;6.13;5.53;;;24.50;99.90;;;;;;5035693;28;20480;-48
2021/09/15 12:57:19;;;;;;;7.13;6.43;;;24.30;99.90;;;;;;5034888;28;20475;-48